Time;durP1;ratioP1;P1;durP2;ratioP2;P2;SDS_P1;SDS_P2;PMS_P1;PMS_P2;Temp;Humidity;BMP_temperature;BMP_pressure;BME280_temperature;BME280_humidity;BME280_pressure;Samples;Min_cycle;Max_cycle;Signal;HPM_P1;HPM_P2
2023/01/17 00:00:11;;;;;;;13.88;8.38;;;;;;;;;;4905742;29;20060;-83
2023/01/17 00:02:56;;;;;;;15.70;8.73;;;;;;;;;;4899497;29;20048;-82
2023/01/17 00:12:11;;;;;;;13.77;8.55;;;;;;;;;;4877842;29;20041;-82
2023/01/17 00:15:02;;;;;;;15.48;8.88;;;;;;;;;;4898217;29;20048;-82
2023/01/17 00:17:47;;;;;;;14.43;8.45;;;;;;;;;;4898130;29;20044;-84
2023/01/17 01:35:59;;;;;;;16.58;8.77;;;;;;;;;;4900659;29;20495;-84
2023/01/17 01:38:45;;;;;;;86.53;23.45;;;;;;;;;;4900893;29;20402;-82
2023/01/17 01:41:30;;;;;;;31.52;13.80;;;;;;;;;;4905966;29;20044;-83
2023/01/17 01:44:42;;;;;;;10.73;7.50;;;;;;;;;;4900701;29;20076;-84
2023/01/17 01:47:39;;;;;;;14.00;7.50;;;;;;;;;;4885820;29;20041;-82
2023/01/17 01:50:25;;;;;;;9.38;6.05;;;;;;;;;;4898501;29;20048;-83
2023/01/17 01:53:10;;;;;;;13.48;6.28;;;;;;;;;;4898366;29;20048;-84
2023/01/17 01:55:55;;;;;;;10.75;6.28;;;;;;;;;;4898789;29;20048;-84
2023/01/17 01:58:45;;;;;;;9.68;6.65;;;;;;;;;;4898166;29;20048;-84
2023/01/17 02:01:30;;;;;;;10.32;6.43;;;;;;;;;;4897902;29;20049;-84
2023/01/17 02:04:17;;;;;;;10.40;6.22;;;;;;;;;;4892028;29;20045;-87
2023/01/17 02:07:09;;;;;;;9.13;5.97;;;;;;;;;;4900187;29;20056;-85
2023/01/17 02:09:54;;;;;;;7.10;4.30;;;;;;;;;;4892666;29;20048;-84
2023/01/17 02:12:40;;;;;;;10.07;6.03;;;;;;;;;;4900172;29;20052;-84
2023/01/17 02:15:53;;;;;;;9.00;5.47;;;;;;;;;;4900066;29;20403;-84
2023/01/17 02:19:10;;;;;;;6.70;4.28;;;;;;;;;;4885878;29;20052;-83
2023/01/17 02:22:13;;;;;;;6.47;4.18;;;;;;;;;;4898683;29;20407;-85
2023/01/17 02:25:30;;;;;;;9.80;6.55;;;;;;;;;;4899825;29;20056;-84
2023/01/17 02:29:09;;;;;;;9.18;5.68;;;;;;;;;;4900010;29;20387;-82
2023/01/17 02:32:15;;;;;;;8.18;4.57;;;;;;;;;;4885743;29;20044;-83
2023/01/17 02:35:11;;;;;;;12.48;7.53;;;;;;;;;;4907634;29;20045;-86
2023/01/17 02:38:11;;;;;;;10.27;6.68;;;;;;;;;;4905009;29;20044;-86
2023/01/17 02:41:04;;;;;;;17.05;8.30;;;;;;;;;;4899286;29;20044;-86
2023/01/17 02:43:51;;;;;;;18.23;10.75;;;;;;;;;;4899754;29;20056;-85
2023/01/17 02:46:50;;;;;;;13.68;8.25;;;;;;;;;;4902244;29;20049;-87
2023/01/17 02:49:36;;;;;;;24.73;11.57;;;;;;;;;;4888549;29;20490;-88
2023/01/17 02:52:36;;;;;;;14.80;6.93;;;;;;;;;;4891665;29;20406;-88
2023/01/17 02:55:31;;;;;;;11.70;4.93;;;;;;;;;;4905305;29;20145;-87
2023/01/17 02:58:38;;;;;;;6.82;4.25;;;;;;;;;;4891062;29;20044;-87
2023/01/17 03:01:32;;;;;;;8.73;5.28;;;;;;;;;;4878443;29;20045;-87
2023/01/17 03:04:30;;;;;;;9.25;5.88;;;;;;;;;;4899848;29;20395;-87
2023/01/17 03:07:21;;;;;;;7.35;5.00;;;;;;;;;;4885026;29;20044;-87
2023/01/17 03:10:08;;;;;;;8.65;5.57;;;;;;;;;;4898973;29;20041;-87
2023/01/17 03:12:56;;;;;;;12.00;6.47;;;;;;;;;;4878308;29;20044;-87
2023/01/17 03:15:42;;;;;;;76.97;31.48;;;;;;;;;;4898295;29;20052;-87
2023/01/17 03:18:27;;;;;;;24.10;11.93;;;;;;;;;;4898628;29;20434;-87
2023/01/17 03:21:12;;;;;;;8.55;5.35;;;;;;;;;;4898161;29;20040;-87
2023/01/17 03:23:58;;;;;;;7.43;4.30;;;;;;;;;;4891200;29;20111;-87
2023/01/17 03:26:44;;;;;;;8.60;5.60;;;;;;;;;;4899101;29;20053;-85
2023/01/17 03:29:32;;;;;;;6.65;4.30;;;;;;;;;;4890796;29;20045;-85
2023/01/17 03:32:18;;;;;;;19.45;9.93;;;;;;;;;;4903877;29;20044;-85
2023/01/17 03:35:10;;;;;;;15.10;7.90;;;;;;;;;;4892787;29;20056;-87
2023/01/17 03:37:55;;;;;;;4.40;2.67;;;;;;;;;;4885500;29;20044;-87
2023/01/17 03:40:40;;;;;;;;;;;;;;;;;;4898728;29;20049;-85
2023/01/17 03:43:27;;;;;;;12.10;4.32;;;;;;;;;;4890899;29;19915;-86
2023/01/17 03:46:20;;;;;;;4.20;2.63;;;;;;;;;;4899152;29;20048;-87
2023/01/17 03:49:05;;;;;;;8.88;3.95;;;;;;;;;;4891145;29;20040;-87
2023/01/17 03:51:50;;;;;;;16.35;7.60;;;;;;;;;;4904217;29;20053;-85
2023/01/17 03:54:35;;;;;;;6.80;3.65;;;;;;;;;;4898852;29;20052;-87
2023/01/17 03:57:21;;;;;;;5.85;3.88;;;;;;;;;;4884839;29;20044;-85
2023/01/17 04:00:07;;;;;;;4.95;2.95;;;;;;;;;;4886936;29;20488;-86
2023/01/17 04:02:52;;;;;;;5.65;3.47;;;;;;;;;;4901861;29;20048;-87
2023/01/17 04:05:39;;;;;;;12.60;6.45;;;;;;;;;;4908729;29;20053;-85
2023/01/17 04:08:25;;;;;;;8.90;5.95;;;;;;;;;;4902427;29;20040;-86
2023/01/17 04:11:13;;;;;;;8.98;5.88;;;;;;;;;;4901765;29;20045;-85
2023/01/17 04:14:01;;;;;;;6.10;3.25;;;;;;;;;;4902548;29;20052;-86
2023/01/17 04:16:46;;;;;;;4.55;3.15;;;;;;;;;;4888897;29;20391;-86
2023/01/17 04:19:34;;;;;;;5.85;3.88;;;;;;;;;;4899658;29;20053;-87
2023/01/17 04:22:19;;;;;;;7.55;4.60;;;;;;;;;;4897150;29;20048;-86
2023/01/17 04:25:05;;;;;;;6.47;4.20;;;;;;;;;;4907565;29;20066;-87
2023/01/17 04:27:53;;;;;;;4.53;3.20;;;;;;;;;;4895426;29;20048;-85
2023/01/17 04:30:39;;;;;;;19.25;9.57;;;;;;;;;;4902927;29;20049;-88
2023/01/17 04:33:24;;;;;;;17.92;10.88;;;;;;;;;;4902350;29;20056;-87
2023/01/17 04:36:10;;;;;;;18.75;8.20;;;;;;;;;;4902839;29;20491;-85
2023/01/17 04:38:58;;;;;;;7.78;4.55;;;;;;;;;;4894312;29;20053;-86
2023/01/17 04:41:45;;;;;;;5.05;3.85;;;;;;;;;;4888273;29;20053;-89
2023/01/17 04:44:31;;;;;;;5.05;3.67;;;;;;;;;;4893824;29;20052;-87
2023/01/17 04:47:16;;;;;;;5.30;3.10;;;;;;;;;;4887799;29;20053;-84
2023/01/17 04:50:05;;;;;;;4.80;3.20;;;;;;;;;;4901637;29;20052;-85
2023/01/17 04:52:49;;;;;;;6.00;3.05;;;;;;;;;;4881003;29;20052;-85
2023/01/17 04:55:34;;;;;;;6.93;4.15;;;;;;;;;;4901231;29;20048;-85
2023/01/17 04:58:20;;;;;;;2.88;2.30;;;;;;;;;;4900469;29;20052;-86
2023/01/17 05:01:07;;;;;;;5.10;2.85;;;;;;;;;;4901555;29;20048;-85
2023/01/17 05:03:52;;;;;;;21.17;11.70;;;;;;;;;;4901306;29;20056;-85
2023/01/17 05:06:37;;;;;;;24.90;14.18;;;;;;;;;;4901738;29;20041;-86
2023/01/17 05:09:25;;;;;;;7.63;4.88;;;;;;;;;;4880528;29;20052;-86
2023/01/17 05:12:26;;;;;;;4.95;2.70;;;;;;;;;;4886555;29;20040;-87
2023/01/17 05:15:19;;;;;;;4.63;1.90;;;;;;;;;;4899970;29;20048;-87
2023/01/17 05:18:07;;;;;;;2.63;1.52;;;;;;;;;;4899968;29;20040;-87
2023/01/17 05:20:52;;;;;;;4.43;2.70;;;;;;;;;;4901216;29;20492;-86
2023/01/17 05:23:41;;;;;;;6.15;3.95;;;;;;;;;;4901083;29;20045;-85
2023/01/17 05:26:27;;;;;;;5.97;3.78;;;;;;;;;;4905984;29;20048;-85
2023/01/17 05:29:12;;;;;;;5.00;2.65;;;;;;;;;;4886690;29;20049;-86
2023/01/17 05:32:00;;;;;;;9.15;4.72;;;;;;;;;;4905817;29;20048;-88
2023/01/17 05:34:45;;;;;;;9.60;5.15;;;;;;;;;;4900882;29;20037;-87
2023/01/17 05:37:30;;;;;;;16.35;8.68;;;;;;;;;;4886951;29;20052;-85
2023/01/17 05:40:17;;;;;;;12.30;6.70;;;;;;;;;;4900588;29;20044;-86
2023/01/17 05:43:03;;;;;;;9.55;5.07;;;;;;;;;;4879621;29;20037;-87
2023/01/17 05:45:48;;;;;;;9.45;4.80;;;;;;;;;;4899992;29;20052;-87
2023/01/17 05:48:36;;;;;;;10.80;6.35;;;;;;;;;;4887000;29;20045;-87
2023/01/17 05:51:22;;;;;;;8.18;4.53;;;;;;;;;;4900687;29;20060;-85
2023/01/17 05:54:07;;;;;;;9.30;5.18;;;;;;;;;;4906298;29;20507;-85
2023/01/17 05:56:53;;;;;;;9.20;5.47;;;;;;;;;;4893160;29;20048;-87
2023/01/17 05:59:39;;;;;;;16.10;8.32;;;;;;;;;;4888916;29;20053;-86
2023/01/17 06:02:24;;;;;;;13.68;8.32;;;;;;;;;;4905782;29;20036;-87
2023/01/17 06:05:10;;;;;;;6.72;4.60;;;;;;;;;;4900566;29;20395;-87
2023/01/17 06:07:55;;;;;;;4.70;2.90;;;;;;;;;;4892557;29;20478;-85
2023/01/17 06:10:41;;;;;;;3.78;2.30;;;;;;;;;;4899907;29;20490;-85
2023/01/17 06:13:26;;;;;;;5.82;3.45;;;;;;;;;;4892020;29;20048;-85
2023/01/17 06:16:12;;;;;;;6.22;3.30;;;;;;;;;;4899900;29;20052;-85
2023/01/17 06:18:57;;;;;;;15.75;9.13;;;;;;;;;;4892722;29;20045;-85
2023/01/17 06:21:43;;;;;;;15.45;9.50;;;;;;;;;;4904965;29;20044;-85
2023/01/17 06:24:29;;;;;;;18.90;9.95;;;;;;;;;;4899865;29;20048;-86
2023/01/17 06:27:14;;;;;;;44.78;20.17;;;;;;;;;;4898638;29;20395;-87
2023/01/17 06:29:59;;;;;;;53.53;27.95;;;;;;;;;;4899680;29;20040;-83
2023/01/17 06:32:51;;;;;;;28.55;14.25;;;;;;;;;;4900087;29;20040;-86
2023/01/17 06:35:37;;;;;;;44.42;24.00;;;;;;;;;;4904554;29;20044;-86
2023/01/17 06:38:22;;;;;;;13.70;7.28;;;;;;;;;;4885745;29;20044;-85
2023/01/17 06:41:08;;;;;;;22.88;12.15;;;;;;;;;;4900943;29;20399;-86
2023/01/17 06:43:55;;;;;;;22.00;12.38;;;;;;;;;;4910921;29;20044;-85
2023/01/17 06:46:41;;;;;;;27.13;14.55;;;;;;;;;;4911610;29;20044;-85
2023/01/17 06:49:26;;;;;;;34.22;17.23;;;;;;;;;;4909112;29;20052;-85
2023/01/17 06:52:12;;;;;;;47.75;21.77;;;;;;;;;;4914014;29;20068;-86
2023/01/17 06:54:57;;;;;;;66.82;28.30;;;;;;;;;;4913774;29;20056;-87
2023/01/17 06:57:43;;;;;;;55.05;28.42;;;;;;;;;;4904440;29;20048;-86
2023/01/17 07:00:30;;;;;;;62.20;30.55;;;;;;;;;;4901976;29;20406;-87
2023/01/17 07:03:20;;;;;;;46.90;22.58;;;;;;;;;;4899300;29;20425;-83
2023/01/17 07:06:04;;;;;;;41.92;23.80;;;;;;;;;;4898788;29;20041;-83
2023/01/17 07:08:49;;;;;;;44.85;24.92;;;;;;;;;;4899000;29;20491;-83
2023/01/17 07:11:35;;;;;;;54.97;28.52;;;;;;;;;;4900238;29;20395;-87
2023/01/17 07:14:20;;;;;;;74.03;31.67;;;;;;;;;;4901012;29;20056;-87
2023/01/17 07:17:06;;;;;;;76.72;33.42;;;;;;;;;;4893943;29;20041;-83
2023/01/17 07:19:50;;;;;;;46.40;23.27;;;;;;;;;;4906358;29;20056;-83
2023/01/17 07:22:36;;;;;;;47.15;25.92;;;;;;;;;;4890745;29;20053;-87
2023/01/17 07:25:21;;;;;;;46.25;24.17;;;;;;;;;;4890599;29;20414;-83
2023/01/17 07:28:07;;;;;;;38.25;20.50;;;;;;;;;;4903971;29;20048;-84
2023/01/17 07:30:53;;;;;;;43.97;21.27;;;;;;;;;;4898806;29;20068;-85
2023/01/17 07:33:38;;;;;;;27.15;14.52;;;;;;;;;;4898934;29;20048;-87
2023/01/17 07:36:24;;;;;;;29.17;15.88;;;;;;;;;;4901396;29;20048;-84
2023/01/17 07:39:10;;;;;;;27.75;12.77;;;;;;;;;;4895985;29;20049;-83
2023/01/17 07:41:55;;;;;;;25.80;13.85;;;;;;;;;;4898545;29;20049;-87
2023/01/17 07:44:42;;;;;;;26.75;14.98;;;;;;;;;;4910280;29;20056;-85
2023/01/17 07:47:27;;;;;;;30.30;16.05;;;;;;;;;;4907023;29;20053;-88
2023/01/17 07:50:13;;;;;;;26.50;17.25;;;;;;;;;;4902149;29;20503;-86
2023/01/17 07:52:59;;;;;;;24.15;14.93;;;;;;;;;;4898421;29;20049;-83
2023/01/17 07:55:44;;;;;;;42.40;22.48;;;;;;;;;;4898466;29;20048;-83
2023/01/17 07:58:30;;;;;;;25.30;14.00;;;;;;;;;;4884177;29;20056;-84
2023/01/17 08:01:16;;;;;;;17.58;10.77;;;;;;;;;;4896671;29;20411;-87
2023/01/17 08:04:02;;;;;;;20.13;10.73;;;;;;;;;;4897130;29;20048;-86
2023/01/17 08:06:50;;;;;;;19.85;12.13;;;;;;;;;;4898682;29;20056;-84
2023/01/17 08:09:35;;;;;;;39.92;22.98;;;;;;;;;;4898112;29;20048;-84
2023/01/17 08:12:20;;;;;;;25.63;15.52;;;;;;;;;;4899043;29;20041;-87
2023/01/17 08:15:07;;;;;;;34.78;24.38;;;;;;;;;;4901583;29;20041;-87
2023/01/17 08:17:52;;;;;;;25.25;17.10;;;;;;;;;;4901909;29;20045;-88
2023/01/17 08:20:37;;;;;;;22.27;13.55;;;;;;;;;;4898208;29;20041;-83
2023/01/17 08:23:23;;;;;;;20.15;12.18;;;;;;;;;;4900815;29;20057;-87
2023/01/17 08:26:08;;;;;;;20.13;10.48;;;;;;;;;;4906022;29;20036;-86
2023/01/17 08:29:01;;;;;;;22.98;13.43;;;;;;;;;;4906941;29;20044;-87
2023/01/17 08:31:47;;;;;;;25.33;15.35;;;;;;;;;;4900529;29;20033;-83
2023/01/17 08:34:32;;;;;;;33.00;17.58;;;;;;;;;;4893686;29;20052;-87
2023/01/17 08:37:18;;;;;;;34.67;20.15;;;;;;;;;;4901377;29;20075;-86
2023/01/17 08:40:05;;;;;;;40.97;25.83;;;;;;;;;;4901002;29;20056;-87
2023/01/17 08:42:55;;;;;;;46.97;25.83;;;;;;;;;;4905213;29;20040;-84
2023/01/17 08:45:44;;;;;;;44.65;24.48;;;;;;;;;;4898742;29;20048;-83
2023/01/17 08:48:29;;;;;;;50.80;28.58;;;;;;;;;;4900637;29;20056;-86
2023/01/17 08:51:15;;;;;;;41.13;24.00;;;;;;;;;;4902037;29;20600;-86
2023/01/17 08:54:00;;;;;;;50.47;26.30;;;;;;;;;;4909114;29;20040;-86
2023/01/17 08:56:46;;;;;;;48.40;26.10;;;;;;;;;;4896996;29;20045;-87
2023/01/17 08:59:31;;;;;;;44.58;24.83;;;;;;;;;;4889780;29;20052;-84
2023/01/17 09:02:18;;;;;;;29.90;16.90;;;;;;;;;;4888174;29;20049;-87
2023/01/17 09:05:04;;;;;;;26.40;16.38;;;;;;;;;;4893421;29;20048;-85
2023/01/17 09:07:49;;;;;;;25.65;14.77;;;;;;;;;;4894891;29;20479;-87
2023/01/17 09:10:35;;;;;;;22.33;13.25;;;;;;;;;;4901537;29;20040;-88
2023/01/17 09:13:20;;;;;;;23.98;11.45;;;;;;;;;;4901065;29;20040;-83
2023/01/17 09:16:07;;;;;;;22.05;10.73;;;;;;;;;;4900099;29;20037;-88
2023/01/17 09:18:56;;;;;;;20.38;11.32;;;;;;;;;;4901325;29;20052;-88
2023/01/17 09:21:41;;;;;;;17.80;10.02;;;;;;;;;;4902825;29;20048;-83
2023/01/17 09:24:27;;;;;;;14.57;9.05;;;;;;;;;;4906263;29;20407;-84
2023/01/17 09:27:12;;;;;;;13.68;7.47;;;;;;;;;;4901236;29;20040;-84
2023/01/17 09:29:58;;;;;;;14.77;9.20;;;;;;;;;;4901177;29;20475;-84
2023/01/17 09:32:43;;;;;;;16.95;9.10;;;;;;;;;;4901246;29;20054;-87
2023/01/17 09:35:28;;;;;;;12.68;7.80;;;;;;;;;;4879590;29;20048;-83
2023/01/17 09:38:13;;;;;;;10.30;6.70;;;;;;;;;;4899795;29;20045;-82
2023/01/17 09:41:01;;;;;;;7.97;5.32;;;;;;;;;;4900578;29;20045;-84
2023/01/17 09:43:54;;;;;;;13.63;7.72;;;;;;;;;;4901215;29;20040;-83
2023/01/17 09:46:43;;;;;;;14.43;7.57;;;;;;;;;;4901716;29;20056;-79
2023/01/17 09:49:40;;;;;;;14.63;9.00;;;;;;;;;;4907388;29;20056;-79
2023/01/17 09:52:29;;;;;;;36.33;15.68;;;;;;;;;;4900781;29;20052;-83
2023/01/17 09:55:16;;;;;;;11.15;7.38;;;;;;;;;;4900581;29;20056;-80
2023/01/17 09:58:15;;;;;;;13.77;8.20;;;;;;;;;;4900383;29;20132;-79
2023/01/17 10:01:13;;;;;;;17.75;10.00;;;;;;;;;;4899638;29;20407;-82
2023/01/17 10:04:05;;;;;;;10.05;5.53;;;;;;;;;;4900938;29;20407;-79
2023/01/17 10:07:09;;;;;;;6.63;4.13;;;;;;;;;;4905574;29;20041;-79
2023/01/17 10:10:13;;;;;;;7.45;4.88;;;;;;;;;;4900286;29;20506;-81
2023/01/17 10:13:17;;;;;;;10.60;6.30;;;;;;;;;;4900252;29;20048;-82
2023/01/17 10:16:40;;;;;;;9.05;4.63;;;;;;;;;;4899936;29;20045;-79
2023/01/17 10:20:00;;;;;;;12.88;6.07;;;;;;;;;;4892348;29;20056;-79
2023/01/17 10:22:54;;;;;;;7.80;2.40;;;;;;;;;;4892263;29;20045;-82
2023/01/17 10:25:51;;;;;;;19.08;10.40;;;;;;;;;;4900277;29;20045;-82
2023/01/17 10:28:47;;;;;;;22.23;10.82;;;;;;;;;;4906989;29;20418;-78
2023/01/17 10:31:38;;;;;;;26.15;9.52;;;;;;;;;;4900234;29;20049;-81
2023/01/17 10:34:33;;;;;;;16.83;10.07;;;;;;;;;;4906669;29;20486;-81
2023/01/17 10:37:29;;;;;;;9.30;6.13;;;;;;;;;;4906364;29;20498;-81
2023/01/17 10:40:30;;;;;;;8.23;4.55;;;;;;;;;;4906590;29;20052;-78
2023/01/17 10:43:26;;;;;;;6.40;2.58;;;;;;;;;;4900017;29;20045;-82
2023/01/17 10:46:20;;;;;;;3.30;1.90;;;;;;;;;;4900024;29;20036;-80
2023/01/17 10:49:14;;;;;;;2.05;1.45;;;;;;;;;;4899763;29;20052;-79
2023/01/17 10:52:25;;;;;;;4.22;1.50;;;;;;;;;;4899852;29;20044;-81
2023/01/17 10:55:37;;;;;;;5.05;2.92;;;;;;;;;;4899838;29;20519;-81
2023/01/17 10:58:24;;;;;;;3.58;2.28;;;;;;;;;;4899461;29;20048;-82
2023/01/17 11:01:20;;;;;;;5.28;3.70;;;;;;;;;;4906136;29;20048;-79
2023/01/17 11:04:16;;;;;;;5.93;3.47;;;;;;;;;;4899957;29;20405;-80
2023/01/17 11:07:15;;;;;;;4.55;2.17;;;;;;;;;;4899890;29;20044;-81
2023/01/17 11:10:01;;;;;;;5.32;2.78;;;;;;;;;;4899157;29;20406;-79
2023/01/17 11:12:47;;;;;;;4.45;2.65;;;;;;;;;;4905409;29;20040;-78
2023/01/17 11:15:38;;;;;;;3.25;1.92;;;;;;;;;;4899177;29;20048;-82
2023/01/17 11:18:26;;;;;;;11.48;4.63;;;;;;;;;;4905893;29;20491;-85
2023/01/17 11:21:19;;;;;;;8.80;5.00;;;;;;;;;;4899587;29;20045;-84
2023/01/17 11:24:11;;;;;;;6.10;3.50;;;;;;;;;;4885776;29;20065;-84
2023/01/17 11:26:57;;;;;;;6.07;2.90;;;;;;;;;;4899299;29;20044;-83
2023/01/17 11:29:42;;;;;;;11.13;6.55;;;;;;;;;;4899079;29;20410;-84
2023/01/17 11:32:31;;;;;;;26.75;15.57;;;;;;;;;;4902418;29;20041;-90
2023/01/17 11:35:24;;;;;;;47.72;26.50;;;;;;;;;;4904762;29;20060;-89
2023/01/17 11:38:18;;;;;;;18.90;11.05;;;;;;;;;;4904866;29;20056;-83
2023/01/17 11:41:19;;;;;;;4.55;3.05;;;;;;;;;;4904543;29;20045;-86
2023/01/17 11:44:31;;;;;;;21.45;13.40;;;;;;;;;;4890026;29;20053;-83
2023/01/17 11:47:18;;;;;;;32.72;16.10;;;;;;;;;;4904664;29;20048;-82
2023/01/17 11:50:22;;;;;;;11.90;7.07;;;;;;;;;;4906027;29;20044;-89
2023/01/17 11:53:16;;;;;;;5.90;3.67;;;;;;;;;;4884319;29;20045;-83
2023/01/17 11:56:17;;;;;;;6.72;4.68;;;;;;;;;;4890320;29;20048;-83
2023/01/17 11:59:16;;;;;;;6.07;3.50;;;;;;;;;;4898733;29;20048;-89
2023/01/17 12:02:10;;;;;;;8.23;3.88;;;;;;;;;;4897591;29;20044;-91
2023/01/17 12:05:14;;;;;;;16.00;10.38;;;;;;;;;;4898765;29;20391;-90
2023/01/17 12:08:22;;;;;;;12.63;9.95;;;;;;;;;;4898794;29;20483;-89
2023/01/17 12:11:20;;;;;;;10.95;5.93;;;;;;;;;;4904178;29;20044;-86
2023/01/17 12:14:25;;;;;;;10.43;6.47;;;;;;;;;;4898170;29;20495;-83
2023/01/17 12:17:26;;;;;;;9.02;5.00;;;;;;;;;;4898714;29;20391;-90
2023/01/17 12:20:26;;;;;;;9.80;4.88;;;;;;;;;;4892272;29;20049;-89
2023/01/17 12:23:35;;;;;;;6.88;4.95;;;;;;;;;;4901964;29;20049;-83
2023/01/17 12:26:30;;;;;;;7.60;5.18;;;;;;;;;;4901847;29;20040;-89
2023/01/17 12:29:40;;;;;;;5.70;3.75;;;;;;;;;;4888132;29;20056;-90
2023/01/17 12:32:43;;;;;;;11.07;6.40;;;;;;;;;;4908242;29;20474;-89
2023/01/17 12:35:52;;;;;;;9.27;6.13;;;;;;;;;;4894590;29;20049;-89
2023/01/17 12:38:39;;;;;;;13.65;8.15;;;;;;;;;;4906579;29;20044;-90
2023/01/17 12:41:33;;;;;;;15.77;9.07;;;;;;;;;;4903856;29;20053;-83
2023/01/17 12:44:22;;;;;;;14.43;7.95;;;;;;;;;;4903372;29;20052;-89
2023/01/17 12:47:08;;;;;;;17.30;8.85;;;;;;;;;;4893930;29;20048;-90
2023/01/17 12:50:20;;;;;;;13.57;8.15;;;;;;;;;;4901637;29;20463;-83
2023/01/17 12:53:43;;;;;;;11.93;6.82;;;;;;;;;;4887584;29;20037;-90
2023/01/17 12:56:38;;;;;;;34.55;16.08;;;;;;;;;;4880287;29;20046;-90
2023/01/17 12:59:36;;;;;;;33.97;18.02;;;;;;;;;;4900807;29;20053;-91
2023/01/17 13:02:36;;;;;;;14.82;7.35;;;;;;;;;;4901165;29;20436;-90
2023/01/17 13:05:40;;;;;;;14.95;9.73;;;;;;;;;;4901614;29;20044;-90
2023/01/17 13:08:45;;;;;;;18.40;11.00;;;;;;;;;;4900084;29;20052;-83
2023/01/17 13:11:56;;;;;;;64.03;26.33;;;;;;;;;;4902223;29;20045;-91
2023/01/17 13:14:45;;;;;;;61.17;33.38;;;;;;;;;;4886105;29;20049;-84
2023/01/17 13:17:47;;;;;;;48.20;29.95;;;;;;;;;;4901109;29;20049;-91
2023/01/17 13:20:53;;;;;;;35.22;22.52;;;;;;;;;;4900818;29;20056;-88
2023/01/17 13:24:11;;;;;;;26.67;17.00;;;;;;;;;;4905782;29;20044;-88
2023/01/17 13:27:01;;;;;;;20.80;12.52;;;;;;;;;;4892741;29;20044;-89
2023/01/17 13:30:24;;;;;;;22.48;12.77;;;;;;;;;;4892879;29;20049;-86
2023/01/17 13:33:34;;;;;;;19.55;11.90;;;;;;;;;;4899279;29;20037;-89
2023/01/17 13:36:43;;;;;;;28.88;18.23;;;;;;;;;;4900784;29;20048;-88
2023/01/17 13:39:34;;;;;;;29.55;17.95;;;;;;;;;;4900574;29;20048;-85
2023/01/17 13:42:44;;;;;;;17.80;9.80;;;;;;;;;;4900990;29;20044;-88
2023/01/17 13:45:37;;;;;;;43.95;25.65;;;;;;;;;;4901314;29;20395;-90
2023/01/17 13:48:28;;;;;;;23.40;14.18;;;;;;;;;;4901139;29;20049;-82
2023/01/17 13:51:14;;;;;;;28.75;15.52;;;;;;;;;;4899509;29;20048;-82
2023/01/17 13:53:59;;;;;;;22.60;13.20;;;;;;;;;;4892508;29;20044;-87
2023/01/17 13:56:45;;;;;;;14.80;7.95;;;;;;;;;;4899478;29;20048;-87
2023/01/17 13:59:30;;;;;;;17.52;9.88;;;;;;;;;;4900081;29;20053;-82
2023/01/17 14:02:31;;;;;;;26.08;13.32;;;;;;;;;;4900496;29;20040;-86
2023/01/17 14:05:19;;;;;;;39.13;23.52;;;;;;;;;;4900197;29;20057;-86
2023/01/17 14:08:12;;;;;;;12.48;6.32;;;;;;;;;;4900278;29;20048;-83
2023/01/17 14:11:06;;;;;;;12.00;6.70;;;;;;;;;;4900131;29;20044;-83
2023/01/17 14:13:52;;;;;;;;;;;;;;;;;;4901657;29;20415;-87
2023/01/17 14:16:38;;;;;;;15.57;6.45;;;;;;;;;;4892113;29;19915;-83
2023/01/17 14:19:25;;;;;;;16.15;6.95;;;;;;;;;;4900336;29;20045;-82
2023/01/17 14:22:19;;;;;;;28.30;14.80;;;;;;;;;;4885885;29;20422;-86
2023/01/17 14:25:08;;;;;;;26.33;14.45;;;;;;;;;;4900102;29;20467;-87
2023/01/17 14:27:58;;;;;;;23.92;11.65;;;;;;;;;;4899923;29;20061;-81
2023/01/17 14:30:44;;;;;;;20.45;11.45;;;;;;;;;;4899802;29;20399;-84
2023/01/17 14:33:35;;;;;;;14.40;6.75;;;;;;;;;;4899261;29;20041;-87
2023/01/17 14:36:28;;;;;;;31.55;14.07;;;;;;;;;;4900151;29;20387;-88
2023/01/17 14:39:21;;;;;;;59.50;26.30;;;;;;;;;;4899833;29;20483;-88
2023/01/17 14:42:12;;;;;;;22.65;10.55;;;;;;;;;;4892028;29;20040;-87
2023/01/17 14:45:05;;;;;;;24.00;13.65;;;;;;;;;;4904519;29;20044;-89
2023/01/17 14:47:51;;;;;;;42.08;23.75;;;;;;;;;;4898325;29;20048;-86
2023/01/17 14:50:39;;;;;;;21.27;12.38;;;;;;;;;;4904852;29;20048;-83
2023/01/17 14:53:31;;;;;;;12.32;7.45;;;;;;;;;;4899305;29;20045;-82
2023/01/17 14:56:34;;;;;;;15.15;6.43;;;;;;;;;;4899307;29;20491;-84
2023/01/17 14:59:21;;;;;;;12.52;6.95;;;;;;;;;;4888566;29;20053;-86
2023/01/17 15:02:14;;;;;;;8.05;4.07;;;;;;;;;;4899316;29;20490;-82
2023/01/17 15:04:59;;;;;;;7.68;4.95;;;;;;;;;;4899318;29;20056;-82
2023/01/17 15:07:49;;;;;;;8.25;4.28;;;;;;;;;;4904580;29;20053;-87
2023/01/17 15:10:42;;;;;;;6.43;2.33;;;;;;;;;;4898477;29;20402;-87
2023/01/17 15:13:40;;;;;;;5.28;2.95;;;;;;;;;;4898935;29;20057;-87
2023/01/17 15:16:28;;;;;;;5.47;2.70;;;;;;;;;;4899108;29;20391;-82
2023/01/17 15:19:14;;;;;;;7.13;3.35;;;;;;;;;;4885090;29;20056;-86
2023/01/17 15:21:59;;;;;;;14.15;7.82;;;;;;;;;;4891762;29;20044;-87
2023/01/17 15:24:45;;;;;;;6.13;3.28;;;;;;;;;;4904544;29;20045;-87
2023/01/17 15:27:31;;;;;;;18.92;10.70;;;;;;;;;;4897408;29;20048;-88
2023/01/17 15:30:16;;;;;;;9.77;4.25;;;;;;;;;;4904882;29;20052;-88
2023/01/17 15:33:04;;;;;;;8.70;4.10;;;;;;;;;;4898826;29;20037;-86
2023/01/17 15:36:15;;;;;;;7.07;3.83;;;;;;;;;;4877970;29;20044;-90
2023/01/17 15:39:47;;;;;;;8.82;5.40;;;;;;;;;;4878307;29;20045;-89
2023/01/17 15:42:36;;;;;;;58.75;36.13;;;;;;;;;;4877861;29;20078;-89
2023/01/17 15:45:28;;;;;;;8.80;4.40;;;;;;;;;;4898422;29;20048;-88
2023/01/17 15:48:40;;;;;;;22.50;14.35;;;;;;;;;;4884628;29;20052;-85
2023/01/17 15:51:31;;;;;;;4.18;2.63;;;;;;;;;;4899122;29;20048;-84
2023/01/17 15:54:55;;;;;;;14.93;9.20;;;;;;;;;;4900148;29;20052;-84
2023/01/17 15:57:46;;;;;;;69.68;27.35;;;;;;;;;;4902961;29;20056;-87
2023/01/17 16:00:39;;;;;;;105.55;38.30;;;;;;;;;;4903397;29;20052;-85
2023/01/17 16:03:29;;;;;;;178.20;58.72;;;;;;;;;;4909810;29;20049;-87
2023/01/17 16:06:49;;;;;;;55.47;18.55;;;;;;;;;;4904830;29;20048;-85
2023/01/17 16:09:44;;;;;;;9.20;5.15;;;;;;;;;;4894990;29;20491;-85
2023/01/17 16:12:30;;;;;;;9.90;6.05;;;;;;;;;;4895656;29;20045;-83
2023/01/17 16:15:16;;;;;;;43.50;17.08;;;;;;;;;;4909888;29;20041;-86
2023/01/17 16:18:14;;;;;;;23.20;10.15;;;;;;;;;;4896535;29;20049;-85
2023/01/17 16:21:23;;;;;;;60.40;31.10;;;;;;;;;;4910040;29;20048;-84
2023/01/17 16:24:15;;;;;;;17.42;10.15;;;;;;;;;;4904544;29;20415;-85
2023/01/17 16:27:03;;;;;;;15.27;9.60;;;;;;;;;;4904511;29;20406;-87
2023/01/17 16:29:48;;;;;;;18.38;12.40;;;;;;;;;;4905135;29;20045;-88
2023/01/17 16:32:33;;;;;;;9.75;7.30;;;;;;;;;;4907999;29;20036;-87
2023/01/17 16:35:35;;;;;;;6.18;4.38;;;;;;;;;;4926292;29;20048;-87
2023/01/17 16:38:26;;;;;;;2.78;2.17;;;;;;;;;;4899338;29;20044;-86
2023/01/17 16:41:32;;;;;;;6.90;3.42;;;;;;;;;;4885340;29;20486;-85
2023/01/17 16:44:20;;;;;;;11.75;5.97;;;;;;;;;;4909981;29;20040;-87
2023/01/17 16:47:05;;;;;;;43.28;24.73;;;;;;;;;;4904488;29;20053;-84
2023/01/17 16:50:04;;;;;;;;;;;;;;;;;;;;;
2023/01/17 16:52:58;;;;;;;54.50;28.65;;;;;;;;;;4905692;29;20133;-84
2023/01/17 16:55:56;;;;;;;14.63;8.35;;;;;;;;;;4904380;29;20044;-85
2023/01/17 16:58:44;;;;;;;6.57;4.68;;;;;;;;;;4909295;29;20052;-85
2023/01/17 17:01:36;;;;;;;1.98;1.27;;;;;;;;;;4893733;29;20053;-85
2023/01/17 17:04:22;;;;;;;15.65;9.73;;;;;;;;;;4896413;29;20045;-86
2023/01/17 17:07:10;;;;;;;4.82;3.63;;;;;;;;;;4901185;29;20048;-85
2023/01/17 17:09:55;;;;;;;8.38;4.88;;;;;;;;;;4906396;29;20483;-87
2023/01/17 17:12:50;;;;;;;6.32;4.40;;;;;;;;;;4901079;29;20048;-88
2023/01/17 17:16:07;;;;;;;7.32;3.65;;;;;;;;;;4888002;29;20759;-89
2023/01/17 17:19:04;;;;;;;10.43;5.95;;;;;;;;;;4901952;29;20044;-88
2023/01/17 17:21:58;;;;;;;12.25;8.30;;;;;;;;;;4906560;29;20048;-86
2023/01/17 17:24:44;;;;;;;21.52;11.77;;;;;;;;;;4901213;29;20044;-89
2023/01/17 17:27:30;;;;;;;14.77;7.20;;;;;;;;;;4900212;29;20049;-83
2023/01/17 17:30:15;;;;;;;17.58;9.52;;;;;;;;;;4900200;29;20045;-84
2023/01/17 17:33:03;;;;;;;7.82;5.68;;;;;;;;;;4900808;29;20048;-83
2023/01/17 17:35:48;;;;;;;10.38;4.72;;;;;;;;;;4906954;29;20074;-86
2023/01/17 17:38:47;;;;;;;9.00;4.03;;;;;;;;;;4906919;29;20044;-85
2023/01/17 17:41:34;;;;;;;13.77;8.30;;;;;;;;;;4886596;29;20512;-82
2023/01/17 17:44:19;;;;;;;26.13;17.80;;;;;;;;;;4900603;29;20053;-83
2023/01/17 17:47:22;;;;;;;8.65;5.40;;;;;;;;;;4903612;29;20048;-86
2023/01/17 17:50:11;;;;;;;11.68;6.25;;;;;;;;;;4904154;29;20040;-86
2023/01/17 17:53:00;;;;;;;8.00;4.80;;;;;;;;;;4900365;29;20056;-86
2023/01/17 17:55:45;;;;;;;9.43;5.97;;;;;;;;;;4900440;29;20052;-87
2023/01/17 17:58:32;;;;;;;19.63;10.95;;;;;;;;;;4897080;29;20052;-89
2023/01/17 18:01:17;;;;;;;11.45;7.28;;;;;;;;;;4901848;29;20048;-82
2023/01/17 18:04:03;;;;;;;36.83;16.95;;;;;;;;;;4906889;29;20045;-85
2023/01/17 18:06:48;;;;;;;8.70;5.82;;;;;;;;;;4907049;29;20478;-86
2023/01/17 18:09:34;;;;;;;11.75;7.30;;;;;;;;;;4900701;29;20048;-81
2023/01/17 18:12:19;;;;;;;9.93;5.90;;;;;;;;;;4900394;29;20052;-81
2023/01/17 18:15:04;;;;;;;10.82;6.50;;;;;;;;;;4900335;29;20487;-81